LZB974 LBWN-LBSF

Flight info

Callsign LZB974
Flight time 0h 39m
Altitude 26000
Route DICXA T343 UMPIT
Aircraft A320/M-SDE3FGHIRWY/LB1

Departure

Time 2026-04-29 18:31
Airport Varna Airport (LBWN)

Arrival

Time 2026-04-29 19:10
Airport Sofia Airport (LBSF)
Time Latitude Longitude Altitude Speed Heading
2026-04-29 18:11 43.23607 27.82650 244 ft 0 kts 59°
2026-04-29 18:21 43.23607 27.82647 243 ft 0 kts 59°
2026-04-29 18:25 43.23607 27.82648 243 ft 0 kts 59°
2026-04-29 18:25 43.23611 27.82661 244 ft 2 kts 79°
2026-04-29 18:25 43.23580 27.82676 242 ft 11 kts 200°
2026-04-29 18:26 43.23542 27.82753 242 ft 14 kts 94°
2026-04-29 18:26 43.23540 27.82915 246 ft 19 kts 78°
2026-04-29 18:26 43.23544 27.83090 249 ft 17 kts 110°
2026-04-29 18:26 43.23463 27.83216 248 ft 19 kts 141°
2026-04-29 18:27 43.23371 27.83395 246 ft 27 kts 98°
2026-04-29 18:27 43.23345 27.83688 241 ft 33 kts 97°
2026-04-29 18:27 43.23316 27.83974 234 ft 23 kts 108°
2026-04-29 18:27 43.23190 27.84096 230 ft 24 kts 186°
2026-04-29 18:28 43.23072 27.83958 231 ft 22 kts 259°
2026-04-29 18:28 43.23072 27.83894 232 ft 0 kts 276°
2026-04-29 18:28 43.23072 27.83893 232 ft 0 kts 276°
2026-04-29 18:30 43.23085 27.83747 235 ft 48 kts 277°
2026-04-29 18:30 43.23157 27.82906 240 ft 127 kts 276°
2026-04-29 18:30 43.23263 27.81407 338 ft 180 kts 274°
2026-04-29 18:31 43.23452 27.79709 1152 ft 181 kts 276°
2026-04-29 18:31 43.23621 27.78070 2107 ft 178 kts 275°
2026-04-29 18:31 43.23776 27.76342 2840 ft 192 kts 274°
2026-04-29 18:31 43.23936 27.74475 3533 ft 208 kts 274°
2026-04-29 18:32 43.24110 27.72416 4015 ft 229 kts 275°
2026-04-29 18:32 43.23965 27.67817 5183 ft 260 kts 258°
2026-04-29 18:32 43.23623 27.65343 6074 ft 265 kts 258°
2026-04-29 18:33 43.23289 27.62892 7044 ft 266 kts 259°
2026-04-29 18:33 43.22968 27.60419 7974 ft 268 kts 261°
2026-04-29 18:33 43.22652 27.57898 8893 ft 270 kts 262°
2026-04-29 18:33 43.22346 27.55369 9767 ft 273 kts 262°
2026-04-29 18:34 43.22045 27.52837 10560 ft 277 kts 263°
2026-04-29 18:34 43.21836 27.51048 10890 ft 288 kts 263°
2026-04-29 18:34 43.21402 27.47301 11410 ft 312 kts 263°
2026-04-29 18:34 43.21052 27.44284 11773 ft 329 kts 263°
2026-04-29 18:35 43.20684 27.41128 12400 ft 336 kts 263°
2026-04-29 18:35 43.20318 27.38003 13200 ft 338 kts 263°
2026-04-29 18:35 43.19947 27.34831 13964 ft 340 kts 262°
2026-04-29 18:35 43.19570 27.31628 14712 ft 342 kts 262°
2026-04-29 18:36 43.19194 27.28421 15446 ft 344 kts 262°
2026-04-29 18:36 43.18818 27.25215 16140 ft 346 kts 262°
2026-04-29 18:36 43.18433 27.21955 16848 ft 348 kts 262°
2026-04-29 18:36 43.18046 27.18684 17524 ft 350 kts 263°
2026-04-29 18:37 43.17655 27.15383 18189 ft 352 kts 263°
2026-04-29 18:37 43.17267 27.12122 18824 ft 354 kts 263°
2026-04-29 18:37 43.16869 27.08794 19431 ft 357 kts 263°
2026-04-29 18:37 43.16466 27.05441 20028 ft 359 kts 263°
2026-04-29 18:38 43.16058 27.02035 20515 ft 365 kts 263°
2026-04-29 18:38 43.15639 26.98551 20838 ft 374 kts 263°
2026-04-29 18:38 43.15217 26.95053 21341 ft 377 kts 263°
2026-04-29 18:38 43.14791 26.91537 21892 ft 379 kts 263°
2026-04-29 18:39 43.14365 26.87995 22415 ft 381 kts 264°
2026-04-29 18:39 43.13931 26.84405 22903 ft 384 kts 264°
2026-04-29 18:39 43.13492 26.80791 23387 ft 387 kts 264°
2026-04-29 18:39 43.13048 26.77154 23877 ft 389 kts 264°
2026-04-29 18:40 43.12604 26.73523 24367 ft 391 kts 263°
2026-04-29 18:40 43.12154 26.69852 24813 ft 393 kts 263°
2026-04-29 18:40 43.11704 26.66209 25234 ft 395 kts 264°
2026-04-29 18:40 43.11244 26.62500 25650 ft 398 kts 263°
2026-04-29 18:41 43.09845 26.51263 26093 ft 401 kts 264°
2026-04-29 18:41 43.09371 26.47495 26092 ft 401 kts 264°
2026-04-29 18:42 43.08901 26.43759 26091 ft 400 kts 264°
2026-04-29 18:42 43.08427 26.39998 26092 ft 401 kts 264°
2026-04-29 18:42 43.07956 26.36277 26095 ft 400 kts 264°
2026-04-29 18:42 43.07481 26.32531 26096 ft 400 kts 263°
2026-04-29 18:43 43.07008 26.28811 26088 ft 401 kts 263°
2026-04-29 18:43 43.06530 26.25048 26087 ft 402 kts 263°
2026-04-29 18:43 43.06056 26.21325 26087 ft 401 kts 263°
2026-04-29 18:43 43.05570 26.17528 26085 ft 402 kts 263°
2026-04-29 18:44 43.05092 26.13812 26085 ft 402 kts 263°
2026-04-29 18:44 43.04606 26.10024 26083 ft 402 kts 263°
2026-04-29 18:44 43.04122 26.06267 26086 ft 402 kts 263°
2026-04-29 18:44 43.03640 26.02539 26081 ft 402 kts 263°
2026-04-29 18:45 43.03151 25.98771 26081 ft 402 kts 263°
2026-04-29 18:45 43.02666 25.95041 26082 ft 402 kts 263°
2026-04-29 18:45 43.02174 25.91265 26083 ft 402 kts 263°
2026-04-29 18:45 43.01684 25.87521 26078 ft 403 kts 263°
2026-04-29 18:46 43.01188 25.83740 26081 ft 403 kts 263°
2026-04-29 18:46 43.00710 25.79989 26078 ft 403 kts 264°
2026-04-29 18:46 43.00353 25.76214 26081 ft 403 kts 266°
2026-04-29 18:46 43.00028 25.72396 26084 ft 403 kts 266°
2026-04-29 18:47 42.99704 25.68651 26086 ft 402 kts 266°
2026-04-29 18:47 42.99367 25.64834 26080 ft 403 kts 266°
2026-04-29 18:47 42.99027 25.61061 26083 ft 403 kts 266°
2026-04-29 18:47 42.98676 25.57254 26079 ft 404 kts 266°
2026-04-29 18:48 42.98339 25.53456 26081 ft 404 kts 266°
2026-04-29 18:48 42.98028 25.49657 26083 ft 403 kts 266°
2026-04-29 18:48 42.97716 25.45869 26078 ft 404 kts 266°
2026-04-29 18:48 42.97402 25.42112 26081 ft 403 kts 266°
2026-04-29 18:49 42.97078 25.38318 26076 ft 403 kts 266°
2026-04-29 18:49 42.96749 25.34493 26076 ft 404 kts 266°
2026-04-29 18:49 42.96418 25.30670 26078 ft 404 kts 265°
2026-04-29 18:49 42.96086 25.26874 26080 ft 405 kts 265°
2026-04-29 18:50 42.95753 25.23082 26078 ft 405 kts 265°
2026-04-29 18:50 42.95414 25.19245 26077 ft 405 kts 265°
2026-04-29 18:50 42.95074 25.15422 26080 ft 405 kts 265°
2026-04-29 18:50 42.94733 25.11619 26075 ft 405 kts 265°
2026-04-29 18:51 42.94394 25.07827 26077 ft 405 kts 265°
2026-04-29 18:51 42.94051 25.04029 26076 ft 404 kts 265°
2026-04-29 18:51 42.93706 25.00222 26077 ft 404 kts 265°
2026-04-29 18:51 42.93362 24.96438 26075 ft 405 kts 265°
2026-04-29 18:52 42.93012 24.92616 26070 ft 405 kts 265°
2026-04-29 18:52 42.92664 24.88814 26075 ft 404 kts 265°
2026-04-29 18:52 42.92316 24.85039 26068 ft 404 kts 265°
2026-04-29 18:52 42.91965 24.81241 26073 ft 404 kts 265°
2026-04-29 18:53 42.91611 24.77433 26075 ft 404 kts 265°
2026-04-29 18:53 42.91301 24.73667 26071 ft 404 kts 267°
2026-04-29 18:53 42.91035 24.69826 26073 ft 405 kts 267°
2026-04-29 18:53 42.90774 24.66036 26074 ft 405 kts 267°
2026-04-29 18:54 42.90505 24.62239 26007 ft 403 kts 267°
2026-04-29 18:54 42.90231 24.58461 25470 ft 401 kts 267°
2026-04-29 18:54 42.89950 24.54645 24204 ft 412 kts 266°
2026-04-29 18:54 42.89650 24.50760 22898 ft 421 kts 266°
2026-04-29 18:55 42.89337 24.46825 22023 ft 419 kts 266°
2026-04-29 18:55 42.89021 24.42851 21311 ft 414 kts 265°
2026-04-29 18:55 42.88715 24.38986 20604 ft 409 kts 265°
2026-04-29 18:55 42.88415 24.35179 19853 ft 406 kts 265°
2026-04-29 18:56 42.88114 24.31349 19117 ft 402 kts 265°
2026-04-29 18:56 42.87822 24.27623 18409 ft 398 kts 265°
2026-04-29 18:56 42.87529 24.23899 17714 ft 394 kts 265°
2026-04-29 18:56 42.87239 24.20243 16979 ft 391 kts 265°
2026-04-29 18:57 42.86950 24.16596 16256 ft 388 kts 265°
2026-04-29 18:57 42.86655 24.12898 15542 ft 384 kts 265°
2026-04-29 18:57 42.86372 24.09351 14860 ft 381 kts 265°
2026-04-29 18:57 42.86085 24.05781 14330 ft 373 kts 265°
2026-04-29 18:58 42.85806 24.02315 14100 ft 361 kts 265°
2026-04-29 18:58 42.85532 23.98916 14071 ft 360 kts 265°
2026-04-29 18:58 42.85260 23.95568 13608 ft 358 kts 265°
2026-04-29 18:58 42.84988 23.92196 12617 ft 366 kts 265°
2026-04-29 18:59 42.84707 23.88724 11688 ft 370 kts 264°
2026-04-29 18:59 42.84424 23.85271 11212 ft 362 kts 264°
2026-04-29 18:59 42.84147 23.81921 10752 ft 355 kts 264°
2026-04-29 18:59 42.83872 23.78605 10341 ft 346 kts 264°
2026-04-29 19:00 42.83607 23.75427 10151 ft 332 kts 264°
2026-04-29 19:00 42.83352 23.72367 10034 ft 316 kts 264°
2026-04-29 19:00 42.83109 23.69454 9778 ft 307 kts 264°
2026-04-29 19:00 42.82869 23.66596 9481 ft 300 kts 265°
2026-04-29 19:01 42.82637 23.63841 9202 ft 293 kts 264°
2026-04-29 19:01 42.82407 23.61106 8844 ft 289 kts 264°
2026-04-29 19:01 42.82181 23.58424 8511 ft 284 kts 265°
2026-04-29 19:01 42.81958 23.55783 8184 ft 280 kts 265°
2026-04-29 19:02 42.81735 23.53151 7860 ft 275 kts 265°
2026-04-29 19:02 42.81589 23.51448 7653 ft 272 kts 265°
2026-04-29 19:02 42.81302 23.48079 7245 ft 267 kts 265°
2026-04-29 19:02 42.81089 23.45604 6950 ft 262 kts 265°
2026-04-29 19:03 42.80877 23.43135 6656 ft 258 kts 265°
2026-04-29 19:03 42.80672 23.40748 6381 ft 254 kts 265°
2026-04-29 19:03 42.80467 23.38372 6111 ft 250 kts 265°
2026-04-29 19:03 42.80269 23.36082 5973 ft 240 kts 265°
2026-04-29 19:04 42.80076 23.33856 5958 ft 230 kts 265°
2026-04-29 19:04 42.79894 23.31751 5777 ft 218 kts 265°
2026-04-29 19:04 42.79717 23.29704 5399 ft 217 kts 265°
2026-04-29 19:04 42.79544 23.27695 5144 ft 214 kts 265°
2026-04-29 19:05 42.79328 23.25704 4885 ft 212 kts 255°
2026-04-29 19:05 42.78551 23.24026 4614 ft 213 kts 220°
2026-04-29 19:05 42.77259 23.23154 4512 ft 208 kts 190°
2026-04-29 19:05 42.75846 23.23092 4458 ft 198 kts 178°
2026-04-29 19:06 42.74475 23.23194 4352 ft 198 kts 177°
2026-04-29 19:06 42.73092 23.23301 4247 ft 198 kts 177°
2026-04-29 19:06 42.70533 23.24196 4042 ft 190 kts 127°
2026-04-29 19:07 42.70142 23.25809 3997 ft 177 kts 89°
2026-04-29 19:07 42.70150 23.26371 3951 ft 173 kts 84°
2026-04-29 19:07 42.70258 23.29018 3396 ft 169 kts 86°
2026-04-29 19:07 42.70265 23.30611 3097 ft 163 kts 88°
2026-04-29 19:08 42.70227 23.32089 2900 ft 154 kts 91°
2026-04-29 19:08 42.70145 23.33505 2697 ft 146 kts 93°
2026-04-29 19:08 42.70059 23.34825 2490 ft 137 kts 92°
2026-04-29 19:08 42.69984 23.36116 2322 ft 136 kts 92°
2026-04-29 19:09 42.69906 23.37405 2147 ft 136 kts 92°
2026-04-29 19:09 42.69829 23.38681 1969 ft 135 kts 93°
2026-04-29 19:09 42.69756 23.39941 1793 ft 133 kts 93°
2026-04-29 19:09 42.69687 23.41102 1754 ft 106 kts 94°
2026-04-29 19:10 42.69635 23.41967 1754 ft 75 kts 94°
2026-04-29 19:10 42.69595 23.42438 1754 ft 38 kts 103°
2026-04-29 19:10 42.69483 23.42734 1754 ft 26 kts 141°
2026-04-29 19:10 42.69399 23.42658 1754 ft 16 kts 271°
2026-04-29 19:11 42.69408 23.42498 1754 ft 16 kts 274°
2026-04-29 19:11 42.69418 23.42337 1754 ft 17 kts 275°
2026-04-29 19:11 42.69429 23.42176 1754 ft 17 kts 275°
2026-04-29 19:11 42.69438 23.42014 1754 ft 17 kts 272°
2026-04-29 19:12 42.69448 23.41850 1754 ft 18 kts 275°
2026-04-29 19:12 42.69459 23.41657 1754 ft 20 kts 274°
2026-04-29 19:12 42.69471 23.41463 1754 ft 20 kts 274°
2026-04-29 19:12 42.69474 23.41400 1754 ft 20 kts 274°
2026-04-29 19:13 42.69409 23.41202 1754 ft 14 kts 191°
2026-04-29 19:13 42.69309 23.41171 1754 ft 15 kts 192°
2026-04-29 19:13 42.69204 23.41140 1754 ft 15 kts 192°
2026-04-29 19:13 42.69115 23.41068 1754 ft 15 kts 246°
2026-04-29 19:14 42.69093 23.40980 1754 ft 4 kts 239°
2026-04-29 19:14 42.69060 23.40974 1754 ft 6 kts 154°
2026-04-29 19:14 42.69017 23.40997 1754 ft 7 kts 162°
2026-04-29 19:14 42.69003 23.41003 1754 ft 0 kts 163°
2026-04-29 19:15 42.69001 23.41003 1754 ft 0 kts 163°